Insider Trading activities of Honeywell International Inc insiders. , Part 2

Monthly summaries of insider trading activities (stock purchases, sales, and option exercises) reported by insiders of Honeywell International Inc since 2005 are illustrated in Table 1 and Table 2. Table 1 shows the monthly insider trading data of Honeywell International Inc since year 2005. (See page 1 of this report.) Table 2 shows the detailed insider transactions of Honeywell International Inc since 2005. The reporting company's ticker symbol is HON. The reporting company's CIK number is 773840.
The total value of stock buying since 2005 is $1,170,544.
The total value of stock sales since 2005 is $824,327,155.
The total value of stock option exercises since 2005 is $711,171,819.


 1   2   3 

Table 2. Detailed insider stock purchases, sales, and option exercises of Honeywell International Inc insiders (HON) , Part 2
  Trade Date   Insider Name Trade Type     Shares       Price ($)   Value ($)
2015-04-23 Burke Kevin (Director) Option Ex 679 102.58 69,651
2015-04-23 Davis D Scott (Director) Option Ex 679 102.58 69,651
2015-04-23 Bethune Gordon M (Director) Option Ex 679 102.58 69,651
2015-04-23 Sheares Bradley T (Director) Option Ex 679 102.58 69,651
2015-04-23 Hollick Clive R (Director) Option Ex 679 102.58 69,651
2015-04-23 Pardo Jaime Chico /fa (Director) Option Ex 679 102.58 69,651
2015-04-22 Matteo Adam (Vice President & Controller) Sale 357 101.65 36,289
2015-04-22 Pardo Jaime Chico /fa Option Ex 5,000 36.28 181,400
2015-03-01 Adamczyk Darius (President & CEO, PMT) Option Ex 35,031 103.44 3,623,606
2015-03-01 Matteo Adam (Vice President & Controller) Option Ex 1,337 103.44 138,299
2015-03-01 Szlosek Thomas A (SVP & Chief Financial Officer) Option Ex 53,077 103.44 5,490,284
2015-02-27 Mahoney Timothy O. (President and CEO, Aerospace) Sale 1,110 103.04 114,374
2015-02-27 Bethune Gordon M (Director) Sale 1,760 103.15 181,544
2015-02-27 Bethune Gordon M (Director) Option Ex 5,000 36.28 181,400
2015-02-26 Mahoney Timothy O. (President and CEO, Aerospace) Option Ex 8,149 103.90 846,681
2015-02-23 Cote David M (Chairman & CEO) Sale 303,798 104.27 31,677,017
2015-02-19 Mahoney Timothy O. (President and CEO, Aerospace) Sale 600 104.10 62,460
2015-02-13 Cote David M (Chairman & CEO) Option Ex 1,400,000 42.32 59,248,000
2015-02-12 Adams Katherine L. (Sr. VP & General Counsel) Sale 10,000 103.31 1,033,100
2015-02-03 Adams Katherine L. (Sr. VP & General Counsel) Sale 20,000 101.00 2,020,000
2015-02-03 Fradin Roger (Vice Chairman) Sale 39,968 100.03 3,997,999
2015-02-03 Fradin Roger (Vice Chairman) Option Ex 50,000 58.48 2,924,000
2015-02-02 Fradin Roger (Vice Chairman) Sale 88,648 97.75 8,665,342
2015-02-02 Fradin Roger (Vice Chairman) Option Ex 110,000 58.48 6,432,800
2015-01-15 Mahoney Timothy O. (President and CEO, Aerospace) Option Ex 2,075 98.25 203,868
2015-01-06 Burke Kevin (Director) Option Ex 3,380 98.51 332,963
2014-12-19 Mahoney Timothy O. (President & CEO, Aerospace) Sale 14,699 100.78 1,481,365
2014-12-19 Mahoney Timothy O. (President & CEO, Aerospace) Option Ex 20,000 47.38 947,600
2014-11-11 Cote David M (Chairman & CEO) Option Ex 600,000 36.51 21,906,000
2014-10-23 Adams Katherine L. (SVP and General Counsel) Sale 25,065 93.42 2,341,697
2014-10-23 Adams Katherine L. (SVP and General Counsel) Option Ex 30,000 42.32 1,269,600
2014-10-23 Fradin Roger (Vice Chairman) Sale 88,677 93.84 8,321,449
2014-10-22 Ismail Alexandre (President & CEO, ACS) Sale 53,831 92.68 4,989,057
2014-10-22 James Mark R. (SVP-HR Procur & Communications) Sale 123,174 92.92 11,445,943
2014-10-22 James Mark R. (SVP-HR Procur & Communications) Option Ex 80,000 58.48 4,678,400
2014-10-07 Fradin Roger (Vice Chairman) Option Ex 85,485 90.55 7,740,666
2014-10-06 Adams Katherine L. (Sr. VP & General Counsel) Option Ex 18,868 92.20 1,739,629
2014-08-18 Fradin Roger (Vice Chairman) Sale 90,000 95.03 8,552,700
2014-08-15 Sheares Bradley T (Director) Sale 3,857 94.69 365,219
2014-08-15 Sheares Bradley T (Director) Option Ex 5,000 51.22 256,100
2014-08-13 Adams Katherine L. (Sr. VP & General Counsel) Sale 3,800 94.00 357,200
2014-08-01 Matteo Adam (Vice President & Controller) Sale 135 92.01 12,421
2014-07-29 Adamczyk Darius (President & CEO, PMT) Option Ex 3,539 94.53 334,541
2014-07-29 Matteo Adam (Vice President & Controller) Option Ex 1,415 94.53 133,759
2014-05-13 Kramvis Andreas (Vice Chairman) Sale 12,144 94.50 1,147,608
2014-05-13 Kramvis Andreas (Vice Chairman) Option Ex 16,000 47.38 758,080
2014-05-12 Adamczyk Darius (President & CEO, PMT) Sale 1,611 93.20 150,145
2014-05-12 Kramvis Andreas (Vice Chairman) Sale 59,431 94.00 5,586,514
2014-02-25 Hahn Terrence (President and CEO - TS) Option Ex 3,634 93.76 340,723
2014-02-25 Matteo Adam (Vice President & Controller) Option Ex 1,710 93.76 160,329
2014-02-24 Fradin Roger (President & CEO, ACS) Sale 54,032 95.00 5,133,040
2014-02-24 Fradin Roger (President & CEO, ACS) Option Ex 71,321 47.38 3,379,188
2014-02-20 Pardo Jaime Chico /fa (Director) Option Ex 5,000 34.87 174,350
2014-02-19 Fradin Roger (President & CEO, ACS) Sale 12,257 95.00 1,164,415
2014-02-19 Fradin Roger (President & CEO, ACS) Option Ex 16,179 47.38 766,561
2014-01-31 Adams Katherine L. (SVP and General Counsel) Sale 5,326 92.00 489,992
2014-01-31 Adams Katherine L. (SVP and General Counsel) Option Ex 7,500 36.51 273,825
2014-01-31 Hollick Clive R (Director) Option Ex 10,000 35.58 355,750
2014-01-30 Mahoney Timothy O. (President and CEO, Aerospace) Sale 295 90.85 26,800
2014-01-30 Bethune Gordon M (Director) Sale 1,923 90.87 174,743
2014-01-30 Bethune Gordon M (Director) Option Ex 5,000 34.87 174,350
2014-01-29 Fradin Roger (President & CEO, ACS) Sale 67,477 90.23 6,088,449
2014-01-29 Fradin Roger (President & CEO, ACS) Option Ex 87,500 47.38 4,145,750
2014-01-15 Mahoney Timothy O. (President and CEO, Aerospace) Option Ex 2,036 89.88 182,995
2013-12-26 Adams Katherine L. (SVP and General Counsel) Sale 6,911 91.00 628,901
2013-12-26 Adams Katherine L. (SVP and General Counsel) Option Ex 10,000 36.51 365,100
2013-12-23 Adams Katherine L. (SVP and General Counsel) Sale 13,399 90.00 1,205,910
2013-12-23 Adams Katherine L. (SVP and General Counsel) Option Ex 20,000 32.43 648,600
2013-12-23 Fradin Roger (President & CEO, ACS) Sale 25,000 90.00 2,250,000
2013-12-20 Adams Katherine L. (Sr. VP & General Counsel) Sale 2,335 89.22 208,340
2013-12-12 Paz George (Director) Option Ex 3,315 86.31 286,117
2013-11-18 Mahoney Timothy O. (President & CEO, Aerospace) Sale 66,798 88.81 5,932,664
2013-11-18 Mahoney Timothy O. (President & CEO, Aerospace) Option Ex 43,500 39.41 1,714,552
2013-11-11 Mikkilineni Krishna (SVP, Engineering & Operations) Sale 54,375 87.50 4,757,812
2013-11-11 Mikkilineni Krishna (SVP, Engineering & Operations) Option Ex 58,000 42.07 2,440,060
2013-11-11 Anderson David J (Sr. VP and CFO) Sale 65,155 87.19 5,680,864
2013-11-11 Anderson David J (Sr. VP and CFO) Option Ex 100,000 28.35 2,835,000
2013-11-04 Cote David M (Chairman & CEO) Sale 418,521 86.16 36,059,769
2013-11-04 Cote David M (Chairman & CEO) Option Ex 600,000 35.65 21,390,000
2013-10-28 Ismail Alexandre (Pres Energy, Safety & Security) Sale 15,323 87.21 1,336,318
2013-10-25 Anderson David J (Sr. VP and CFO) Sale 20,000 86.91 1,738,200
2013-10-23 Adams Katherine L. (Sr. VP & General Counsel) Sale 8,000 86.40 691,200
2013-10-23 James Mark R. (SVP-HR Procur & Communications) Sale 370 86.10 31,856
2013-10-11 Fradin Roger (President & CEO, ACS) Sale 12,897 85.02 1,096,502
2013-10-10 Fradin Roger (President & CEO, ACS) Sale 177,715 85.00 15,105,775
2013-10-10 Fradin Roger (President & CEO, ACS) Option Ex 244,421 28.35 6,929,335
2013-10-06 Mikkilineni Krishna (SrVP, Engineering, Ops & IT) Option Ex 12,782 82.08 1,049,146
2013-10-06 Ismail Alexandre (Pres. Energy,Safety & Security) Option Ex 17,044 82.08 1,398,971
2013-10-06 James Mark R. (Sr. VP, HR & Communications) Option Ex 14,914 82.08 1,224,141
2013-09-23 Kramvis Andreas (Pres/CEO Honeywell PMT) Sale 3,205 85.22 273,130
2013-09-23 Fradin Roger (President & CEO, ACS) Sale 20,711 85.14 1,763,334
2013-09-23 Fradin Roger (President & CEO, ACS) Option Ex 30,579 28.35 866,914
2013-09-19 Adams Katherine L. (SVP and General Counsel) Sale 6,516 87.25 568,521
2013-09-19 Adams Katherine L. (SVP and General Counsel) Option Ex 10,000 28.35 283,500
2013-09-16 Adams Katherine L. (SVP and General Counsel) Sale 6,556 85.25 558,899
2013-09-16 Adams Katherine L. (SVP and General Counsel) Option Ex 10,000 28.35 283,500
2013-08-15 Gregg Judd A. (Director) Buy 1,000 82.10 82,100
2013-08-13 Adams Katherine L. (Sr. VP & General Counsel) Sale 6,000 83.15 498,900
2013-08-09 Kramvis Andreas (Pres/CEO Honeywell PMT) Sale 39,660 83.50 3,311,610
2013-08-09 Kramvis Andreas (Pres/CEO Honeywell PMT) Option Ex 30,000 42.32 1,269,600
2013-08-09 James Mark R. (Sr. VP, HR & Communications) Sale 22,078 83.51 1,843,733
2013-08-09 James Mark R. (Sr. VP, HR & Communications) Option Ex 29,000 44.85 1,300,650
2013-08-08 Anderson David J (Sr. VP and CFO) Sale 14,831 83.86 1,243,727
2013-08-04 Ismail Alexandre (Pres. Energy,Safety & Security) Option Ex 5,780 84.39 487,774
2013-07-30 Hahn Terrence (President and CEO - TS) Option Ex 712 83.24 59,266
2013-07-30 Matteo Adam (Vice President & Controller) Sale 265 83.19 22,045
2013-07-29 Sheares Bradley T (Director) Sale 7,670 82.93 636,073
2013-07-29 Sheares Bradley T (Director) Option Ex 10,000 39.88 398,750
2013-07-25 Matteo Adam (Vice President & Controller) Option Ex 1,521 82.78 125,908
2013-07-25 Mikkilineni Krishna (SrVP, Engineering, Ops & IT) Option Ex 5,700 82.78 471,846
2013-07-25 Kramvis Andreas (Pres/CEO Honeywell PMT) Option Ex 18,999 82.78 1,572,737
2013-07-25 James Mark R. (Sr. VP, HR & Communications) Sale 145 82.91 12,021
2013-07-25 James Mark R. (Sr. VP, HR & Communications) Option Ex 15,200 82.78 1,258,256
2013-07-05 Adams Katherine L. (Sr. VP & General Counsel) Sale 153 79.19 12,116
2013-06-28 Mikkilineni Krishna (SrVP, Engineering, Ops & IT) Option Ex 5,780 79.75 460,955
2013-06-28 Mahoney Timothy O. (President and CEO, Aerospace) Option Ex 5,780 79.75 460,955
2013-06-28 Adams Katherine L. (Sr. VP & General Counsel) Option Ex 5,780 79.75 460,955
2013-06-28 James Mark R. (Sr. VP, HR & Communications) Option Ex 5,780 79.75 460,955
2013-05-23 Mikkilineni Krishna (SVP, Engineering & Operations) Sale 17,560 79.50 1,396,020
2013-05-23 Mikkilineni Krishna (SVP, Engineering & Operations) Option Ex 28,000 28.35 793,800
2013-05-17 Adams Katherine L. (SVP and General Counsel) Sale 6,669 80.00 533,520
2013-05-17 Adams Katherine L. (SVP and General Counsel) Option Ex 10,000 28.35 283,500
2013-05-17 Fradin Roger (President & CEO, ACS) Sale 190,241 80.21 15,259,230
2013-05-17 Fradin Roger (President & CEO, ACS) Option Ex 250,000 39.41 9,853,750
2013-05-15 Adams Katherine L. (SVP and General Counsel) Sale 6,685 79.84 533,730
2013-05-15 Adams Katherine L. (SVP and General Counsel) Option Ex 10,000 28.35 283,500
2013-05-08 Adams Katherine L. (SVP and General Counsel) Sale 33,710 76.90 2,592,299
2013-05-08 Adams Katherine L. (SVP and General Counsel) Option Ex 50,000 28.35 1,417,500
2013-05-03 Ismail Alexandre (Pres. Energy,Safety & Security) Sale 98,074 75.05 7,360,453
2013-05-03 Ismail Alexandre (Pres. Energy,Safety & Security) Option Ex 139,000 37.05 5,149,394
2013-05-03 Adams Katherine L. (SVP and General Counsel) Sale 27,110 75.50 2,046,805
2013-05-03 Adams Katherine L. (SVP and General Counsel) Option Ex 40,000 28.35 1,134,000
2013-05-03 Anderson David J (Sr. VP and CFO) Sale 15,400 75.24 1,158,696
2013-04-25 Matteo Adam (Vice President & Controller) Sale 49 74.87 3,668
2013-04-25 Kramvis Andreas (Pres/CEO Honeywell PMT) Sale 89,129 74.89 6,674,870
2013-04-25 Kramvis Andreas (Pres/CEO Honeywell PMT) Option Ex 127,401 28.35 3,611,818
2013-04-24 Kramvis Andreas (Pres/CEO Honeywell PMT) Sale 33,280 75.00 2,496,000
2013-04-24 Kramvis Andreas (Pres/CEO Honeywell PMT) Option Ex 47,599 28.35 1,349,431
2013-04-24 James Mark R. (Sr. VP, HR & Communications) Sale 108,764 74.85 8,140,985
2013-04-24 James Mark R. (Sr. VP, HR & Communications) Option Ex 160,000 28.35 4,536,000
2013-04-24 Anderson David J (Sr. VP and CFO) Sale 125,394 74.81 9,381,352
2013-04-24 Anderson David J (Sr. VP and CFO) Option Ex 150,000 36.51 5,476,500
2013-03-22 Fradin Roger (President & CEO, ACS) Sale 56,392 75.00 4,229,400
2013-03-22 Fradin Roger (President & CEO, ACS) Option Ex 75,000 36.51 2,738,250
2013-03-12 Matteo Adam (Vice President & Controller) Option Ex 288 73.49 21,165
2013-03-12 Mikkilineni Krishna (SrVP, Engineering & Operations) Option Ex 994 73.49 73,049
2013-03-01 Mahoney Timothy O. (President and CEO, Aerospace) Sale 1,094 70.17 76,760
2013-02-28 Matteo Adam (Vice President & Controller) Sale 364 70.16 25,539
2013-02-27 Mikkilineni Krishna (SrVP, Engineering & Operations) Sale 13,816 70.50 974,028
2013-02-27 Mikkilineni Krishna (SrVP, Engineering & Operations) Option Ex 20,000 35.65 713,000
 1   2   3 

Insider trading activities including stock purchases, stock sales, and option exercises of HON listed in the above tables cannot be completely guaranteed as to their accuracy. For more insider trading information of Honeywell International Inc (symbol HON, CIK number 773840) see the Securities and Exchange Commission (SEC) website.